Time;durP1;ratioP1;P1;durP2;ratioP2;P2;SDS_P1;SDS_P2;PMS_P1;PMS_P2;Temp;Humidity;BMP_temperature;BMP_pressure;BME280_temperature;BME280_humidity;BME280_pressure;Samples;Min_cycle;Max_cycle;Signal;HPM_P1;HPM_P2
2022/03/24 00:00:48;;;;;;;25.65;16.50;;;;;;;4.06;75.24;96932.47;4990976;28;24472;-73
2022/03/24 00:03:14;;;;;;;20.50;15.20;;;;;;;4.09;76.06;96931.56;4990939;28;24482;-73
2022/03/24 00:05:41;;;;;;;15.88;13.60;;;;;;;4.11;75.67;96934.94;4990971;28;25317;-73
2022/03/24 00:08:08;;;;;;;15.85;13.52;;;;;;;4.17;75.27;96924.56;4991083;28;24441;-72
2022/03/24 00:10:35;;;;;;;20.03;14.27;;;;;;;4.13;74.82;96921.22;4990879;28;24431;-72
2022/03/24 00:13:03;;;;;;;19.48;14.70;;;;;;;4.09;74.04;96919.59;4991009;28;24425;-72
2022/03/24 00:15:30;;;;;;;17.95;16.02;;;;;;;4.04;74.80;96926.53;4990818;28;24467;-73
2022/03/24 00:17:56;;;;;;;20.17;15.30;;;;;;;3.87;74.47;96924.25;4991146;28;24417;-72
2022/03/24 00:20:25;;;;;;;17.83;15.35;;;;;;;3.70;76.00;96928.00;4990848;28;24424;-72
2022/03/24 00:22:52;;;;;;;18.65;14.88;;;;;;;3.63;75.88;96924.69;4990667;28;25006;-73
2022/03/24 00:25:19;;;;;;;20.60;14.43;;;;;;;3.57;76.33;96919.69;4990682;28;24425;-72
2022/03/24 00:27:45;;;;;;;16.77;13.75;;;;;;;3.57;76.86;96925.66;4990846;28;24525;-73
2022/03/24 00:30:13;;;;;;;16.10;13.65;;;;;;;3.60;76.12;96914.50;4990621;28;24472;-73
2022/03/24 00:32:40;;;;;;;17.53;13.93;;;;;;;3.61;75.75;96916.19;4990625;28;24416;-73
2022/03/24 00:35:08;;;;;;;20.10;15.35;;;;;;;3.50;76.00;96915.53;4990793;28;24425;-73
2022/03/24 00:37:34;;;;;;;17.55;14.93;;;;;;;3.44;76.22;96921.59;4990886;28;24795;-73
2022/03/24 00:40:06;;;;;;;20.63;15.15;;;;;;;3.39;76.15;96918.25;4990591;28;24421;-72
2022/03/24 00:42:34;;;;;;;19.40;15.25;;;;;;;3.32;77.05;96914.94;4990760;28;24497;-73
2022/03/24 00:45:01;;;;;;;18.83;15.90;;;;;;;3.26;77.47;96912.47;4990957;28;24969;-72
2022/03/24 00:47:29;;;;;;;18.92;15.50;;;;;;;3.13;78.26;96905.88;4994444;28;24483;-72
2022/03/24 00:49:55;;;;;;;22.35;15.90;;;;;;;3.07;78.59;96909.34;4994247;28;24556;-73
2022/03/24 00:52:22;;;;;;;22.20;17.20;;;;;;;3.03;78.18;96912.00;4994167;28;25140;-72
2022/03/24 00:54:48;;;;;;;21.35;18.05;;;;;;;2.91;79.10;96901.06;4994049;28;24799;-72
2022/03/24 00:57:14;;;;;;;20.33;16.65;;;;;;;2.89;80.26;96902.81;4994031;28;24420;-72
2022/03/24 00:59:41;;;;;;;20.80;17.65;;;;;;;2.89;80.53;96900.25;4993939;28;24467;-73
2022/03/24 01:02:09;;;;;;;21.42;16.00;;;;;;;2.96;79.71;96905.28;4994312;28;24515;-72
2022/03/24 01:04:38;;;;;;;17.30;15.35;;;;;;;3.02;79.26;96907.75;4994053;28;24424;-72
2022/03/24 01:07:06;;;;;;;15.13;13.13;;;;;;;3.10;80.45;96899.06;4994015;28;24424;-72
2022/03/24 01:09:33;;;;;;;17.17;13.57;;;;;;;3.17;79.54;96901.56;4993717;28;24444;-73
2022/03/24 01:11:59;;;;;;;20.40;16.35;;;;;;;3.17;78.99;96899.00;4993878;28;24425;-72
2022/03/24 01:14:26;;;;;;;20.60;16.45;;;;;;;3.11;78.79;96900.75;4994017;28;24824;-72
2022/03/24 01:16:52;;;;;;;20.05;16.27;;;;;;;3.09;78.87;96896.56;4993721;28;24997;-72
2022/03/24 01:19:19;;;;;;;24.10;17.30;;;;;;;2.99;78.03;96897.56;4993802;28;24413;-73
2022/03/24 01:21:47;;;;;;;21.77;17.33;;;;;;;2.78;78.26;96896.13;4993872;28;24630;-72
2022/03/24 01:24:13;;;;;;;20.75;16.77;;;;;;;2.55;80.16;96894.75;4993439;28;24429;-72
2022/03/24 01:26:39;;;;;;;22.88;16.15;;;;;;;2.50;81.09;96893.13;4993911;28;24417;-72
2022/03/24 01:29:08;;;;;;;17.52;15.65;;;;;;;2.48;80.88;96887.19;4993541;28;24499;-72
2022/03/24 01:31:35;;;;;;;21.05;18.55;;;;;;;2.57;80.65;96885.34;4993588;28;24974;-72
2022/03/24 01:34:01;;;;;;;24.67;19.30;;;;;;;2.69;80.42;96888.59;4993527;28;24416;-72
2022/03/24 01:36:28;;;;;;;25.02;19.67;;;;;;;2.70;80.05;96880.91;4993634;28;24428;-72
2022/03/24 01:38:56;;;;;;;25.35;18.95;;;;;;;2.67;78.80;96876.69;4993441;28;25017;-72
2022/03/24 01:41:22;;;;;;;21.80;17.70;;;;;;;2.59;78.51;96878.50;4993264;28;24448;-72
2022/03/24 01:43:49;;;;;;;20.67;17.13;;;;;;;2.41;80.38;96878.72;4997316;28;24958;-72
2022/03/24 01:46:20;;;;;;;18.65;15.90;;;;;;;2.36;82.20;96877.97;5005281;28;24483;-72
2022/03/24 01:48:47;;;;;;;19.95;15.93;;;;;;;2.37;82.26;96882.19;4993306;28;24452;-72
2022/03/24 01:51:13;;;;;;;17.52;15.65;;;;;;;2.42;83.01;96880.44;4992911;28;24467;-72
2022/03/24 01:53:40;;;;;;;26.52;16.13;;;;;;;2.45;82.45;96880.41;4993127;28;24427;-72
2022/03/24 01:56:08;;;;;;;20.35;15.25;;;;;;;2.48;81.98;96877.78;5004777;28;24440;-72
2022/03/24 01:58:38;;;;;;;16.33;14.60;;;;;;;2.47;81.16;96881.22;5010509;28;24787;-72
2022/03/24 02:01:27;;;;;;;17.73;14.82;;;;;;;2.52;81.62;96873.47;5012471;28;24475;-72
2022/03/24 02:03:55;;;;;;;15.30;13.40;;;;;;;2.56;81.31;96870.88;5012473;28;24423;-72
2022/03/24 02:06:21;;;;;;;16.52;13.98;;;;;;;2.62;81.43;96877.63;5012358;28;24423;-72
2022/03/24 02:08:48;;;;;;;19.40;15.60;;;;;;;2.66;80.64;96874.13;5012562;28;24494;-72
2022/03/24 02:11:16;;;;;;;17.73;15.00;;;;;;;2.74;80.96;96877.44;5012457;28;24417;-72
2022/03/24 02:13:42;;;;;;;19.35;14.70;;;;;;;2.72;80.63;96875.78;5012395;28;24482;-72
2022/03/24 02:16:10;;;;;;;16.60;14.82;;;;;;;2.69;79.33;96870.72;5005753;28;24483;-72
2022/03/24 02:18:37;;;;;;;34.05;16.10;;;;;;;2.60;79.00;96867.41;5010960;28;24428;-72
2022/03/24 02:21:04;;;;;;;19.40;15.00;;;;;;;2.52;78.83;96861.56;5011881;28;24421;-72
2022/03/24 02:23:32;;;;;;;16.95;14.65;;;;;;;2.49;79.57;96864.16;5012404;28;24419;-72
2022/03/24 02:25:59;;;;;;;19.50;16.40;;;;;;;2.44;78.93;96863.34;5011877;28;24524;-72
2022/03/24 02:28:25;;;;;;;18.65;15.55;;;;;;;2.40;78.89;96860.00;5012216;28;24532;-72
2022/03/24 02:30:52;;;;;;;16.85;14.88;;;;;;;2.32;79.58;96854.13;5011996;28;24430;-72
2022/03/24 02:33:21;;;;;;;17.35;15.45;;;;;;;2.33;79.38;96857.53;5011722;28;24417;-72
2022/03/24 02:35:48;;;;;;;21.65;15.93;;;;;;;2.32;79.60;96860.97;5011881;28;24432;-72
2022/03/24 02:38:15;;;;;;;19.63;15.20;;;;;;;2.36;78.61;96860.06;5012026;28;24539;-72
2022/03/24 02:40:44;;;;;;;20.40;16.17;;;;;;;2.23;78.92;96861.94;5011543;28;24841;-72
2022/03/24 02:43:11;;;;;;;19.30;15.70;;;;;;;2.08;81.55;96862.97;5011789;28;24427;-72
2022/03/24 02:45:37;;;;;;;17.33;15.18;;;;;;;1.98;83.46;96858.00;5011336;28;24475;-72
2022/03/24 02:48:04;;;;;;;21.33;14.75;;;;;;;1.96;83.43;96857.97;5011523;28;24528;-72
2022/03/24 02:50:31;;;;;;;21.43;15.73;;;;;;;1.94;83.12;96858.03;4994131;28;24432;-72
2022/03/24 02:52:58;;;;;;;17.02;15.23;;;;;;;1.89;84.25;96854.69;4992120;28;24432;-72
2022/03/24 02:55:25;;;;;;;17.58;14.68;;;;;;;1.82;84.44;96855.59;4992179;28;24524;-72
2022/03/24 02:57:53;;;;;;;17.95;14.90;;;;;;;1.83;84.72;96861.56;4992032;28;24453;-72
2022/03/24 03:00:20;;;;;;;16.50;14.90;;;;;;;1.84;84.51;96855.59;4991932;28;24424;-72
2022/03/24 03:02:47;;;;;;;15.07;13.63;;;;;;;1.92;84.31;96856.34;4991811;28;24779;-72
2022/03/24 03:05:14;;;;;;;18.75;15.02;;;;;;;2.00;84.07;96862.19;4991734;28;24465;-72
2022/03/24 03:07:41;;;;;;;19.33;14.98;;;;;;;2.07;83.78;96866.38;4991901;28;24431;-72
2022/03/24 03:10:08;;;;;;;21.23;15.77;;;;;;;2.11;82.97;96867.19;4990637;28;24471;-72
2022/03/24 03:12:34;;;;;;;19.77;15.25;;;;;;;2.13;83.15;96865.47;4991694;28;24429;-72
2022/03/24 03:15:02;;;;;;;17.42;14.82;;;;;;;2.21;81.45;96871.31;4991389;28;24433;-72
2022/03/24 03:17:29;;;;;;;16.23;14.30;;;;;;;2.18;81.93;96866.25;4991857;28;24479;-72
2022/03/24 03:19:56;;;;;;;16.83;14.80;;;;;;;2.08;82.12;96870.63;4991416;28;24799;-72
2022/03/24 03:22:23;;;;;;;18.10;14.77;;;;;;;2.03;82.20;96869.00;4991593;28;24862;-72
2022/03/24 03:24:49;;;;;;;18.05;15.30;;;;;;;1.90;83.16;96865.75;4991424;28;24447;-72
2022/03/24 03:27:16;;;;;;;16.27;14.27;;;;;;;1.85;82.76;96865.78;4991670;28;24416;-72
2022/03/24 03:29:43;;;;;;;16.30;14.50;;;;;;;1.77;83.01;96861.63;4991067;28;24997;-72
2022/03/24 03:32:12;;;;;;;18.10;15.40;;;;;;;1.73;82.11;96871.03;4991594;28;24425;-72
2022/03/24 03:34:40;;;;;;;19.55;15.82;;;;;;;1.64;81.31;96866.03;4991481;28;24421;-72
2022/03/24 03:37:07;;;;;;;19.33;15.52;;;;;;;1.55;82.00;96873.75;4991362;28;24436;-72
2022/03/24 03:39:34;;;;;;;17.90;15.70;;;;;;;1.47;83.25;96871.28;4991251;28;24783;-72
2022/03/24 03:42:01;;;;;;;20.25;18.00;;;;;;;1.41;84.02;96873.91;4991533;28;24823;-72
2022/03/24 03:44:28;;;;;;;26.40;17.80;;;;;;;1.42;83.48;96867.94;4991524;28;24787;-72
2022/03/24 03:46:54;;;;;;;20.58;17.02;;;;;;;1.36;84.27;96868.81;4991472;28;24424;-72
2022/03/24 03:49:22;;;;;;;19.00;14.95;;;;;;;1.30;84.78;96875.69;4991057;28;24444;-72
2022/03/24 03:51:49;;;;;;;22.08;17.38;;;;;;;1.23;84.37;96874.06;4991518;28;24448;-72
2022/03/24 03:54:16;;;;;;;18.77;16.50;;;;;;;1.04;88.57;96875.91;4991270;28;24417;-72
2022/03/24 03:56:42;;;;;;;15.75;14.10;;;;;;;1.16;89.13;96873.25;4991483;28;24520;-72
2022/03/24 03:59:09;;;;;;;16.48;14.63;;;;;;;1.27;87.97;96870.63;4991203;28;24424;-72
2022/03/24 04:01:37;;;;;;;16.20;14.17;;;;;;;1.31;87.08;96864.63;4991286;28;24843;-73
2022/03/24 04:04:04;;;;;;;15.75;14.10;;;;;;;1.38;86.29;96867.13;4991047;28;24425;-72
2022/03/24 04:06:32;;;;;;;15.20;12.90;;;;;;;1.31;87.07;96868.03;4991057;28;24424;-72
2022/03/24 04:08:58;;;;;;;14.82;13.07;;;;;;;1.34;88.51;96867.16;4990713;28;24441;-72
2022/03/24 04:11:25;;;;;;;20.10;14.40;;;;;;;1.43;87.83;96869.63;4996367;28;24499;-72
2022/03/24 04:13:51;;;;;;;19.35;14.13;;;;;;;1.43;88.39;96873.00;5001360;28;24866;-72
2022/03/24 04:16:18;;;;;;;17.23;14.80;;;;;;;1.43;87.60;96870.47;5002403;28;24527;-72
2022/03/24 04:18:47;;;;;;;19.20;15.53;;;;;;;1.42;87.02;96868.78;5010616;28;24782;-72
2022/03/24 04:21:14;;;;;;;19.83;15.90;;;;;;;1.39;86.94;96868.78;5012650;28;24523;-72
2022/03/24 04:23:42;;;;;;;19.73;16.52;;;;;;;1.35;86.63;96874.78;5014422;28;24435;-72
2022/03/24 04:26:10;;;;;;;19.42;15.68;;;;;;;1.39;84.67;96870.50;5013926;28;24985;-72
2022/03/24 04:28:36;;;;;;;19.95;17.35;;;;;;;1.24;86.57;96875.75;5014158;28;24942;-72
2022/03/24 04:31:03;;;;;;;21.25;16.08;;;;;;;1.04;88.99;96873.34;5014282;28;24826;-72
2022/03/24 04:33:30;;;;;;;20.15;15.02;;;;;;;0.95;89.67;96874.28;5014312;28;24415;-72
2022/03/24 04:35:58;;;;;;;17.15;14.48;;;;;;;0.95;89.38;96872.56;5013961;28;24518;-72
2022/03/24 04:38:25;;;;;;;20.10;15.75;;;;;;;0.91;88.78;96870.88;5014122;28;24794;-72
2022/03/24 04:40:53;;;;;;;19.75;15.02;;;;;;;0.87;88.65;96874.31;5014172;28;24523;-72
2022/03/24 04:43:20;;;;;;;19.88;15.82;;;;;;;0.81;88.14;96869.25;5013950;28;25004;-72
2022/03/24 04:45:46;;;;;;;17.20;14.60;;;;;;;0.83;89.38;96879.47;5013913;28;24490;-72
2022/03/24 04:48:13;;;;;;;19.38;15.02;;;;;;;0.87;89.30;96879.44;5013832;28;24428;-72
2022/03/24 04:50:39;;;;;;;17.87;15.07;;;;;;;0.96;88.54;96879.38;5013634;28;25015;-72
2022/03/24 04:53:06;;;;;;;15.75;13.82;;;;;;;1.04;88.69;96878.44;5013784;28;24822;-72
2022/03/24 04:55:32;;;;;;;15.40;13.75;;;;;;;1.06;88.02;96877.59;5013597;28;24981;-72
2022/03/24 04:58:00;;;;;;;16.73;13.80;;;;;;;1.00;87.59;96877.63;5013870;28;24416;-72
2022/03/24 05:00:26;;;;;;;16.15;14.45;;;;;;;0.98;88.80;96883.63;5013505;28;24946;-72
2022/03/24 05:02:53;;;;;;;17.07;14.90;;;;;;;0.87;89.67;96879.44;5013669;28;24423;-72
2022/03/24 05:05:20;;;;;;;17.08;13.52;;;;;;;0.85;89.95;96880.28;5013555;28;24536;-72
2022/03/24 05:07:46;;;;;;;16.45;14.10;;;;;;;0.82;90.26;96883.72;5013543;28;25036;-72
2022/03/24 05:10:12;;;;;;;16.20;13.70;;;;;;;0.83;89.80;96884.56;5013370;28;24481;-72
2022/03/24 05:12:40;;;;;;;19.42;15.65;;;;;;;0.87;87.87;96886.22;5013757;28;24420;-72
2022/03/24 05:15:11;;;;;;;24.10;14.02;;;;;;;0.90;87.07;96881.13;5013363;28;24520;-71
2022/03/24 05:17:38;;;;;;;19.63;14.88;;;;;;;0.70;88.31;96882.09;5013428;28;24428;-71
2022/03/24 05:20:07;;;;;;;17.40;14.52;;;;;;;0.51;91.79;96877.94;5013060;28;24427;-71
2022/03/24 05:22:34;;;;;;;17.43;14.93;;;;;;;0.49;92.92;96879.69;5013408;28;24428;-72
2022/03/24 05:25:00;;;;;;;17.80;14.55;;;;;;;0.51;93.04;96872.84;5013016;28;24431;-72
2022/03/24 05:27:27;;;;;;;15.50;13.90;;;;;;;0.58;92.18;96882.16;5010485;28;24423;-73
2022/03/24 05:29:53;;;;;;;18.13;14.57;;;;;;;0.60;92.10;96883.00;5004536;28;24997;-72
2022/03/24 05:32:22;;;;;;;19.05;14.52;;;;;;;0.58;92.38;96884.72;5010816;28;24440;-72
2022/03/24 05:34:48;;;;;;;20.48;15.48;;;;;;;0.63;92.84;96879.56;5004901;28;25099;-72
2022/03/24 05:37:15;;;;;;;20.92;16.60;;;;;;;0.68;92.53;96894.00;5005242;28;24428;-71
2022/03/24 05:39:42;;;;;;;28.35;19.30;;;;;;;0.71;92.18;96899.09;5009893;28;24429;-72
2022/03/24 05:42:09;;;;;;;37.15;22.10;;;;;;;0.81;91.38;96892.22;5007869;28;24479;-72
2022/03/24 05:44:35;;;;;;;24.70;18.88;;;;;;;0.96;89.78;96896.34;5013269;28;24798;-72
2022/03/24 05:47:02;;;;;;;24.40;16.42;;;;;;;0.92;89.60;96897.25;5012541;28;24452;-72
2022/03/24 05:49:30;;;;;;;21.97;14.90;;;;;;;0.87;91.64;96893.88;5002280;28;24646;-71
2022/03/24 05:51:56;;;;;;;21.63;14.82;;;;;;;0.99;92.29;96893.78;5007999;28;24967;-72
2022/03/24 05:54:23;;;;;;;21.92;15.35;;;;;;;1.14;90.92;96900.47;5001149;28;24838;-72
2022/03/24 05:56:49;;;;;;;18.45;15.65;;;;;;;1.24;90.42;96899.56;5004876;28;24440;-72
2022/03/24 05:59:16;;;;;;;16.83;14.93;;;;;;;1.21;90.23;96904.69;5031993;28;24440;-72
2022/03/24 06:01:45;;;;;;;18.35;15.80;;;;;;;1.18;89.39;96895.34;5004700;28;24428;-72
2022/03/24 06:04:13;;;;;;;20.13;15.90;;;;;;;1.24;89.56;96899.56;5013472;28;24428;-72
2022/03/24 06:06:43;;;;;;;22.58;16.67;;;;;;;1.40;88.56;96906.22;5013309;28;24432;-73
2022/03/24 06:09:09;;;;;;;19.35;16.58;;;;;;;1.34;89.60;96908.00;5013315;28;24464;-72
2022/03/24 06:11:37;;;;;;;24.08;17.00;;;;;;;1.43;90.78;96910.47;5013518;28;24424;-73
2022/03/24 06:14:04;;;;;;;19.10;15.80;;;;;;;1.63;90.45;96908.59;5013095;28;24525;-72
2022/03/24 06:16:31;;;;;;;21.70;15.30;;;;;;;1.80;88.37;96912.69;5013171;28;24438;-73
2022/03/24 06:19:00;;;;;;;20.98;16.67;;;;;;;1.81;88.42;96904.13;4993021;28;24432;-74
2022/03/24 06:21:26;;;;;;;22.23;17.00;;;;;;;1.86;88.67;96910.06;4992944;28;24544;-72
2022/03/24 06:23:54;;;;;;;23.75;16.20;;;;;;;1.84;89.04;96904.97;4996798;28;24437;-73
2022/03/24 06:26:23;;;;;;;22.27;16.83;;;;;;;1.75;89.74;96905.06;5003295;28;24469;-73
2022/03/24 06:28:49;;;;;;;20.23;16.10;;;;;;;1.87;90.13;96907.47;5011479;28;24520;-74
2022/03/24 06:31:16;;;;;;;18.30;15.35;;;;;;;2.00;89.55;96897.97;4992130;28;24448;-73
2022/03/24 06:33:43;;;;;;;19.43;15.87;;;;;;;2.14;90.89;96903.78;5009711;28;24507;-73
2022/03/24 06:36:09;;;;;;;19.90;15.43;;;;;;;2.25;92.54;96903.66;5010995;28;24844;-73
2022/03/24 06:38:36;;;;;;;18.98;16.25;;;;;;;2.39;92.62;96904.34;5011979;28;24451;-73
2022/03/24 06:41:05;;;;;;;28.02;18.55;;;;;;;2.68;90.94;96903.13;5011915;28;24428;-73
2022/03/24 06:43:31;;;;;;;23.23;17.55;;;;;;;2.79;89.98;96900.41;5011443;28;24423;-68
2022/03/24 06:45:58;;;;;;;23.00;18.17;;;;;;;2.93;91.18;96898.50;5011562;28;24814;-74
2022/03/24 06:48:24;;;;;;;21.95;17.83;;;;;;;3.11;89.63;96900.75;5011656;28;24506;-74
2022/03/24 06:50:51;;;;;;;20.45;16.52;;;;;;;3.33;87.67;96891.03;5010633;28;24448;-74
2022/03/24 06:53:17;;;;;;;19.60;16.77;;;;;;;3.56;88.01;96890.66;5011619;28;24486;-73
2022/03/24 06:55:44;;;;;;;17.40;15.57;;;;;;;3.71;87.21;96883.56;5011778;28;24511;-74
2022/03/24 06:58:12;;;;;;;19.02;15.60;;;;;;;3.90;84.95;96889.22;5011557;28;24431;-74
2022/03/24 07:00:39;;;;;;;17.27;15.40;;;;;;;4.09;83.85;96893.13;5011718;28;24424;-74
2022/03/24 07:03:05;;;;;;;19.57;14.60;;;;;;;4.24;83.25;96891.97;5011063;28;24493;-73
2022/03/24 07:05:32;;;;;;;19.73;15.35;;;;;;;4.47;79.87;96892.34;5010913;28;24424;-73
2022/03/24 07:07:59;;;;;;;23.60;15.70;;;;;;;4.64;77.51;96886.03;5011450;28;24479;-73
2022/03/24 07:10:25;;;;;;;21.80;15.23;;;;;;;4.47;72.59;96894.91;5010967;28;24448;-74
2022/03/24 07:12:52;;;;;;;17.98;13.52;;;;;;;4.08;74.10;96894.84;5011619;28;24439;-73
2022/03/24 07:15:22;;;;;;;20.98;13.52;;;;;;;4.17;73.43;96890.41;5011283;28;24436;-74
2022/03/24 07:17:49;;;;;;;15.90;12.85;;;;;;;4.24;73.19;96903.06;5011172;28;25057;-74
2022/03/24 07:20:16;;;;;;;14.52;12.63;;;;;;;4.22;73.12;96901.41;5011188;28;24423;-74
2022/03/24 07:22:42;;;;;;;13.75;12.30;;;;;;;4.54;71.92;96899.03;5011195;28;24869;-74
2022/03/24 07:25:09;;;;;;;16.20;12.15;;;;;;;4.76;72.92;96898.59;5010820;28;24842;-74
2022/03/24 07:27:37;;;;;;;16.23;11.82;;;;;;;4.99;70.35;96898.91;5010890;28;24937;-73
2022/03/24 07:30:05;;;;;;;13.27;11.93;;;;;;;4.82;70.23;96901.00;5047380;23;24578;-71
2022/03/24 07:32:33;;;;;;;19.15;13.85;;;;;;;5.07;70.33;96901.28;5011072;28;24993;-71
2022/03/24 07:35:00;;;;;;;12.73;11.45;;;;;;;5.55;69.15;96901.00;5011002;28;24420;-71
2022/03/24 07:37:27;;;;;;;18.73;11.43;;;;;;;5.94;67.80;96906.06;5010856;28;24425;-73
2022/03/24 07:39:54;;;;;;;13.32;11.93;;;;;;;6.37;66.60;96913.44;4998315;28;24428;-73
2022/03/24 07:42:21;;;;;;;15.15;11.95;;;;;;;6.73;64.85;96908.13;4991429;28;24424;-73
2022/03/24 07:44:49;;;;;;;13.43;11.77;;;;;;;7.07;61.80;96909.69;4991416;28;24470;-74
2022/03/24 07:47:16;;;;;;;18.95;13.00;;;;;;;7.27;60.28;96908.19;4991253;28;25012;-73
2022/03/24 07:49:45;;;;;;;16.38;11.82;;;;;;;7.53;61.00;96898.78;4991085;28;24432;-73
2022/03/24 07:52:14;;;;;;;15.70;12.82;;;;;;;7.09;59.96;96906.19;4991679;28;24525;-74
2022/03/24 07:54:49;;;;;;;15.27;11.48;;;;;;;7.41;59.00;96902.59;4990973;28;24417;-73
2022/03/24 07:57:15;;;;;;;16.45;12.18;;;;;;;7.67;60.05;96904.31;4991292;28;24417;-73
2022/03/24 07:59:42;;;;;;;15.18;11.60;;;;;;;7.47;58.64;96901.56;4991191;28;24432;-74
2022/03/24 08:02:08;;;;;;;17.80;13.70;;;;;;;7.27;58.87;96904.78;4991233;28;24425;-73
2022/03/24 08:04:35;;;;;;;14.02;12.23;;;;;;;7.06;60.26;96906.28;4991270;28;24425;-74
2022/03/24 08:07:03;;;;;;;17.23;12.63;;;;;;;6.80;60.93;96904.50;4991545;28;24791;-74
2022/03/24 08:09:32;;;;;;;16.30;12.73;;;;;;;7.11;60.04;96911.28;4991063;28;24479;-74
2022/03/24 08:11:58;;;;;;;15.77;12.30;;;;;;;7.26;60.42;96908.22;4990976;28;24460;-74
2022/03/24 08:14:25;;;;;;;15.07;12.45;;;;;;;7.65;59.36;96911.28;4991697;28;24424;-73
2022/03/24 08:16:51;;;;;;;14.15;11.48;;;;;;;7.86;59.06;96903.69;4991171;28;24425;-73
2022/03/24 08:19:18;;;;;;;16.45;11.88;;;;;;;8.27;58.08;96904.88;4990748;28;25009;-73
2022/03/24 08:21:44;;;;;;;13.15;11.70;;;;;;;8.24;56.84;96897.22;4991422;28;24424;-73
2022/03/24 08:24:12;;;;;;;13.95;11.88;;;;;;;8.85;56.52;96899.31;4991038;28;24478;-73
2022/03/24 08:26:39;;;;;;;12.73;11.32;;;;;;;9.32;54.85;96902.66;4991126;28;24432;-71
2022/03/24 08:29:06;;;;;;;14.18;11.60;;;;;;;9.21;54.76;96902.22;4988499;28;24513;-71
2022/03/24 08:31:33;;;;;;;13.48;11.90;;;;;;;9.38;53.48;96902.41;4990845;28;20784;-72
2022/03/24 08:34:00;;;;;;;15.40;12.80;;;;;;;9.23;53.37;96897.84;4990907;28;21390;-72
2022/03/24 08:36:26;;;;;;;15.53;12.07;;;;;;;9.49;53.75;96906.28;4996622;28;20851;-71
2022/03/24 08:38:53;;;;;;;12.60;11.27;;;;;;;9.94;52.09;96896.66;5008747;28;20835;-71
2022/03/24 08:41:21;;;;;;;17.17;12.73;;;;;;;9.97;51.40;96895.66;5004280;28;24497;-73
2022/03/24 08:43:47;;;;;;;16.63;12.70;;;;;;;10.01;51.62;96897.25;4994151;28;20783;-73
2022/03/24 08:46:14;;;;;;;16.77;12.27;;;;;;;10.27;50.81;96897.88;4991547;28;24491;-73
2022/03/24 08:48:40;;;;;;;17.05;13.00;;;;;;;10.46;50.25;96903.94;4991080;28;24441;-72
2022/03/24 08:51:07;;;;;;;19.45;12.57;;;;;;;10.54;49.89;96899.25;4989893;28;24460;-73
2022/03/24 08:53:33;;;;;;;22.15;13.05;;;;;;;10.75;50.03;96900.03;4990047;28;24436;-71
2022/03/24 08:56:00;;;;;;;16.45;12.80;;;;;;;11.09;50.14;96899.34;4989964;28;24440;-73
2022/03/24 08:58:28;;;;;;;16.80;13.55;;;;;;;11.29;49.34;96897.56;4989776;28;24440;-72
2022/03/24 09:00:54;;;;;;;17.15;12.93;;;;;;;11.49;48.83;96891.41;4990130;28;24432;-72
2022/03/24 09:03:21;;;;;;;21.35;13.35;;;;;;;11.78;48.98;96893.41;4990816;28;24445;-73
2022/03/24 09:05:48;;;;;;;16.63;13.05;;;;;;;12.17;48.40;96896.72;4990155;28;24441;-73
2022/03/24 09:08:16;;;;;;;16.93;13.77;;;;;;;12.20;47.70;96899.13;4991956;28;24518;-73
2022/03/24 09:10:43;;;;;;;20.05;14.35;;;;;;;12.38;47.55;96899.94;4993098;28;24465;-73
2022/03/24 09:13:10;;;;;;;15.52;13.82;;;;;;;12.50;46.56;96901.94;4993892;28;24471;-74
2022/03/24 09:15:38;;;;;;;19.83;13.82;;;;;;;12.63;46.08;96899.50;4993908;28;24440;-73
2022/03/24 09:18:05;;;;;;;22.15;13.82;;;;;;;12.59;45.49;96901.44;4993116;28;24445;-72
2022/03/24 09:20:32;;;;;;;17.17;13.52;;;;;;;12.91;44.69;96897.13;4993754;28;24460;-72
2022/03/24 09:22:58;;;;;;;17.35;13.27;;;;;;;13.28;44.17;96897.75;4993959;28;24441;-71
2022/03/24 09:25:25;;;;;;;15.15;13.18;;;;;;;13.42;41.88;96900.41;4993617;28;24444;-71
2022/03/24 09:27:51;;;;;;;17.42;13.35;;;;;;;13.58;41.37;96896.94;4992392;28;24437;-72
2022/03/24 09:30:18;;;;;;;19.20;13.80;;;;;;;13.77;40.27;96901.00;4992431;28;24449;-71
2022/03/24 09:32:47;;;;;;;21.25;13.80;;;;;;;14.10;40.62;96902.56;4993971;28;24803;-70
2022/03/24 09:35:14;;;;;;;17.95;13.40;;;;;;;14.19;37.37;96901.19;4992986;28;24990;-71
2022/03/24 09:37:42;;;;;;;19.17;14.93;;;;;;;14.22;36.43;96896.63;4990479;28;24437;-72
2022/03/24 09:40:11;;;;;;;19.10;13.85;;;;;;;14.76;38.46;96898.66;4992795;28;24445;-71
2022/03/24 09:42:39;;;;;;;17.23;13.10;;;;;;;15.29;35.96;96901.44;4992611;28;24524;-71
2022/03/24 09:45:07;;;;;;;14.27;12.43;;;;;;;15.73;36.55;96891.59;4994003;28;24525;-72
2022/03/24 09:47:35;;;;;;;21.77;13.13;;;;;;;16.09;31.38;96887.50;4992460;28;24429;-72
2022/03/24 09:50:03;;;;;;;17.20;12.85;;;;;;;16.68;34.39;96889.56;4992167;28;24455;-73
2022/03/24 09:52:30;;;;;;;16.25;13.10;;;;;;;16.98;34.07;96891.84;4993913;28;24484;-72
2022/03/24 09:54:57;;;;;;;14.65;11.57;;;;;;;17.03;30.55;96884.53;4992787;28;24429;-71
2022/03/24 09:57:24;;;;;;;14.95;11.85;;;;;;;16.63;30.62;96884.66;4993030;28;24532;-71
2022/03/24 09:59:52;;;;;;;13.83;11.27;;;;;;;17.04;32.17;96883.56;4992052;28;24827;-70
2022/03/24 10:02:19;;;;;;;16.65;11.60;;;;;;;17.00;29.74;96883.91;4993043;28;24529;-72
2022/03/24 10:04:49;;;;;;;13.93;12.20;;;;;;;17.10;28.91;96884.94;4992689;28;24448;-72
2022/03/24 10:07:18;;;;;;;16.75;12.27;;;;;;;16.59;26.35;96887.59;4992462;28;25053;-72
2022/03/24 10:09:46;;;;;;;14.23;11.95;;;;;;;16.60;28.28;96887.47;4991623;28;24436;-72
2022/03/24 10:12:21;;;;;;;14.23;12.18;;;;;;;17.24;33.70;96892.59;4992642;28;24460;-73
2022/03/24 10:15:00;;;;;;;18.35;12.02;;;;;;;17.66;29.76;96890.47;4993531;28;24459;-72
2022/03/24 10:17:26;;;;;;;13.60;11.95;;;;;;;17.58;29.74;96877.94;4993059;28;24733;-74
2022/03/24 10:19:57;;;;;;;16.73;13.05;;;;;;;17.49;25.19;96883.81;4991626;28;24806;-73
2022/03/24 10:22:26;;;;;;;14.47;11.87;;;;;;;17.56;27.76;96885.06;4988868;28;25952;-73
2022/03/24 10:24:53;;;;;;;16.17;12.80;;;;;;;17.81;29.43;96880.66;4992516;28;24437;-73
2022/03/24 10:27:25;;;;;;;14.60;12.00;;;;;;;17.86;30.05;96889.00;4992239;28;24520;-73
2022/03/24 10:29:55;;;;;;;18.10;12.87;;;;;;;17.89;28.98;96884.38;4991894;28;24450;-73
2022/03/24 10:32:27;;;;;;;19.27;13.07;;;;;;;17.30;25.48;96878.25;4991943;28;24499;-73
2022/03/24 10:34:57;;;;;;;15.80;12.25;;;;;;;17.69;29.84;96876.28;4992299;28;24536;-73
2022/03/24 10:37:28;;;;;;;14.63;12.35;;;;;;;18.00;28.89;96875.72;4992014;28;25009;-73
2022/03/24 10:39:57;;;;;;;16.90;11.18;;;;;;;18.15;28.32;96876.34;4991651;28;24448;-73
2022/03/24 10:42:27;;;;;;;15.68;11.98;;;;;;;17.94;29.53;96884.03;4991861;28;24520;-73
2022/03/24 10:45:12;;;;;;;14.70;12.20;;;;;;;17.56;28.09;96871.97;4991930;28;25033;-73
2022/03/24 10:47:45;;;;;;;16.33;12.40;;;;;;;17.39;27.62;96869.72;4991413;28;24508;-73
2022/03/24 10:50:30;;;;;;;13.65;12.20;;;;;;;17.14;28.19;96874.13;4991523;28;24445;-73
2022/03/24 10:53:02;;;;;;;15.25;12.50;;;;;;;17.32;29.15;96868.53;4975843;28;24433;-73
2022/03/24 10:55:47;;;;;;;14.05;11.52;;;;;;;17.65;28.36;96865.22;4991393;28;24441;-73
2022/03/24 10:58:18;;;;;;;15.18;12.63;;;;;;;17.50;29.81;96866.31;4991343;28;25064;-73
2022/03/24 11:00:48;;;;;;;16.58;12.93;;;;;;;17.79;29.02;96858.97;4991039;28;24524;-73
2022/03/24 11:03:16;;;;;;;27.17;13.20;;;;;;;18.00;29.54;96861.78;4991602;28;24492;-74
2022/03/24 11:05:43;;;;;;;19.00;14.07;;;;;;;17.78;29.79;96870.41;4991109;28;24549;-74
2022/03/24 11:08:15;;;;;;;17.85;13.13;;;;;;;17.37;31.49;96863.78;4991229;28;24441;-73
2022/03/24 11:10:47;;;;;;;22.03;15.10;;;;;;;17.30;29.38;96865.16;4991273;28;24447;-73
2022/03/24 11:13:18;;;;;;;18.23;13.32;;;;;;;17.19;30.78;96863.31;4983910;28;24436;-72
2022/03/24 11:15:45;;;;;;;17.27;13.53;;;;;;;17.68;29.31;96859.72;4989974;28;24444;-72
2022/03/24 11:18:13;;;;;;;18.90;13.20;;;;;;;17.28;29.43;96861.81;4994638;28;24962;-73
2022/03/24 11:20:41;;;;;;;16.23;12.75;;;;;;;17.57;32.03;96859.69;4990052;28;24552;-73
2022/03/24 11:23:18;;;;;;;17.55;13.70;;;;;;;17.95;30.12;96862.13;4991169;28;24846;-73
2022/03/24 11:25:45;;;;;;;16.63;14.35;;;;;;;17.78;29.49;96857.31;4990838;28;24990;-73